sensor_id;sensor_type;location;lat;lon;timestamp;pressure;altitude;pressure_sealevel;temperature;humidity
69058;BME280;56128;37.534;-122.308;2023-06-24T00:01:30;101600.50;;;16.55;100.00
69058;BME280;56128;37.534;-122.308;2023-06-24T00:03:57;101587.53;;;16.49;100.00
69058;BME280;56128;37.534;-122.308;2023-06-24T00:06:23;101602.59;;;16.42;100.00
69058;BME280;56128;37.534;-122.308;2023-06-24T00:08:52;101587.22;;;16.42;100.00
69058;BME280;56128;37.534;-122.308;2023-06-24T00:11:29;101589.38;;;16.48;100.00
69058;BME280;56128;37.534;-122.308;2023-06-24T00:13:57;101598.16;;;16.41;100.00
69058;BME280;56128;37.534;-122.308;2023-06-24T00:16:25;101591.34;;;16.36;100.00
69058;BME280;56128;37.534;-122.308;2023-06-24T00:18:54;101595.28;;;16.32;100.00
69058;BME280;56128;37.534;-122.308;2023-06-24T00:21:28;101594.28;;;16.33;100.00
69058;BME280;56128;37.534;-122.308;2023-06-24T00:24:00;101593.38;;;16.23;100.00
69058;BME280;56128;37.534;-122.308;2023-06-24T00:26:31;101590.78;;;16.12;100.00
69058;BME280;56128;37.534;-122.308;2023-06-24T00:28:58;101595.13;;;16.03;100.00
69058;BME280;56128;37.534;-122.308;2023-06-24T00:31:24;101587.41;;;15.98;100.00
69058;BME280;56128;37.534;-122.308;2023-06-24T00:33:51;101593.38;;;15.81;100.00
69058;BME280;56128;37.534;-122.308;2023-06-24T00:36:20;101604.81;;;15.73;100.00
69058;BME280;56128;37.534;-122.308;2023-06-24T00:38:47;101590.41;;;15.63;100.00
69058;BME280;56128;37.534;-122.308;2023-06-24T00:41:16;101601.38;;;15.50;100.00
69058;BME280;56128;37.534;-122.308;2023-06-24T00:43:45;101601.38;;;15.50;100.00
69058;BME280;56128;37.534;-122.308;2023-06-24T00:46:11;101610.38;;;15.39;100.00
69058;BME280;56128;37.534;-122.308;2023-06-24T00:48:41;101600.69;;;15.36;100.00
69058;BME280;56128;37.534;-122.308;2023-06-24T00:51:07;101605.09;;;15.37;100.00
69058;BME280;56128;37.534;-122.308;2023-06-24T00:53:33;101595.94;;;15.29;100.00
69058;BME280;56128;37.534;-122.308;2023-06-24T00:56:00;101608.44;;;15.30;100.00
69058;BME280;56128;37.534;-122.308;2023-06-24T00:58:32;101611.03;;;15.20;100.00
69058;BME280;56128;37.534;-122.308;2023-06-24T01:00:59;101600.03;;;15.12;100.00
69058;BME280;56128;37.534;-122.308;2023-06-24T01:03:27;101593.41;;;15.04;100.00
69058;BME280;56128;37.534;-122.308;2023-06-24T01:05:54;101597.47;;;14.99;100.00
69058;BME280;56128;37.534;-122.308;2023-06-24T01:08:20;101605.19;;;14.92;100.00
69058;BME280;56128;37.534;-122.308;2023-06-24T01:10:50;101603.03;;;14.86;100.00
69058;BME280;56128;37.534;-122.308;2023-06-24T01:13:19;101600.34;;;14.86;100.00
69058;BME280;56128;37.534;-122.308;2023-06-24T01:15:45;101603.97;;;14.96;100.00
69058;BME280;56128;37.534;-122.308;2023-06-24T01:18:21;101615.59;;;14.97;100.00
69058;BME280;56128;37.534;-122.308;2023-06-24T01:21:37;101614.91;;;14.83;100.00
69058;BME280;56128;37.534;-122.308;2023-06-24T01:24:07;101622.13;;;14.71;100.00
69058;BME280;56128;37.534;-122.308;2023-06-24T01:32:25;101622.88;;;14.73;100.00
69058;BME280;56128;37.534;-122.308;2023-06-24T01:35:07;101620.28;;;14.72;100.00
69058;BME280;56128;37.534;-122.308;2023-06-24T01:37:40;101621.50;;;14.68;100.00
69058;BME280;56128;37.534;-122.308;2023-06-24T01:40:27;101623.06;;;14.59;100.00
69058;BME280;56128;37.534;-122.308;2023-06-24T01:42:56;101632.38;;;14.55;100.00
69058;BME280;56128;37.534;-122.308;2023-06-24T01:45:26;101638.13;;;14.50;100.00
69058;BME280;56128;37.534;-122.308;2023-06-24T01:48:06;101635.91;;;14.44;100.00
69058;BME280;56128;37.534;-122.308;2023-06-24T01:50:36;101631.00;;;14.38;100.00
69058;BME280;56128;37.534;-122.308;2023-06-24T01:53:06;101637.97;;;14.29;100.00
69058;BME280;56128;37.534;-122.308;2023-06-24T01:55:34;101644.56;;;14.13;100.00
69058;BME280;56128;37.534;-122.308;2023-06-24T01:58:05;101636.00;;;14.08;100.00
69058;BME280;56128;37.534;-122.308;2023-06-24T02:00:34;101639.44;;;14.10;100.00
69058;BME280;56128;37.534;-122.308;2023-06-24T02:03:01;101636.22;;;14.05;100.00
69058;BME280;56128;37.534;-122.308;2023-06-24T02:05:31;101648.44;;;13.98;100.00
69058;BME280;56128;37.534;-122.308;2023-06-24T02:08:02;101647.44;;;13.99;100.00
69058;BME280;56128;37.534;-122.308;2023-06-24T02:10:31;101649.13;;;13.89;100.00
69058;BME280;56128;37.534;-122.308;2023-06-24T02:12:59;101646.44;;;13.89;100.00
69058;BME280;56128;37.534;-122.308;2023-06-24T02:15:26;101655.25;;;13.91;100.00
69058;BME280;56128;37.534;-122.308;2023-06-24T02:17:55;101650.34;;;13.85;100.00
69058;BME280;56128;37.534;-122.308;2023-06-24T02:20:23;101648.88;;;13.80;100.00
69058;BME280;56128;37.534;-122.308;2023-06-24T02:22:54;101650.53;;;13.70;100.00
69058;BME280;56128;37.534;-122.308;2023-06-24T02:25:23;101655.19;;;13.68;100.00
69058;BME280;56128;37.534;-122.308;2023-06-24T02:27:50;101653.78;;;13.62;100.00
69058;BME280;56128;37.534;-122.308;2023-06-24T02:30:20;101654.38;;;13.55;100.00
69058;BME280;56128;37.534;-122.308;2023-06-24T02:32:47;101660.44;;;13.45;100.00
69058;BME280;56128;37.534;-122.308;2023-06-24T02:35:13;101659.19;;;13.38;100.00
69058;BME280;56128;37.534;-122.308;2023-06-24T02:37:40;101664.75;;;13.35;100.00
69058;BME280;56128;37.534;-122.308;2023-06-24T02:40:07;101656.91;;;13.32;100.00
69058;BME280;56128;37.534;-122.308;2023-06-24T02:42:34;101658.97;;;13.28;100.00
69058;BME280;56128;37.534;-122.308;2023-06-24T02:45:02;101652.94;;;13.25;100.00
69058;BME280;56128;37.534;-122.308;2023-06-24T02:47:30;101654.66;;;13.26;100.00
69058;BME280;56128;37.534;-122.308;2023-06-24T02:49:57;101658.97;;;13.28;100.00
69058;BME280;56128;37.534;-122.308;2023-06-24T02:52:24;101657.88;;;13.31;100.00
69058;BME280;56128;37.534;-122.308;2023-06-24T02:54:56;101662.91;;;13.36;100.00
69058;BME280;56128;37.534;-122.308;2023-06-24T02:57:23;101660.91;;;13.39;100.00
69058;BME280;56128;37.534;-122.308;2023-06-24T02:59:51;101655.28;;;13.42;100.00
69058;BME280;56128;37.534;-122.308;2023-06-24T03:02:17;101658.84;;;13.43;100.00
69058;BME280;56128;37.534;-122.308;2023-06-24T03:04:44;101661.41;;;13.44;100.00
69058;BME280;56128;37.534;-122.308;2023-06-24T03:07:11;101651.63;;;13.43;100.00
69058;BME280;56128;37.534;-122.308;2023-06-24T03:09:37;101660.97;;;13.51;100.00
69058;BME280;56128;37.534;-122.308;2023-06-24T03:12:05;101649.56;;;13.47;100.00
69058;BME280;56128;37.534;-122.308;2023-06-24T03:14:32;101657.31;;;13.52;100.00
69058;BME280;56128;37.534;-122.308;2023-06-24T03:16:59;101664.75;;;13.48;100.00
69058;BME280;56128;37.534;-122.308;2023-06-24T03:19:25;101666.34;;;13.51;100.00
69058;BME280;56128;37.534;-122.308;2023-06-24T03:21:52;101656.56;;;13.50;100.00
69058;BME280;56128;37.534;-122.308;2023-06-24T03:24:18;101660.84;;;13.52;100.00
69058;BME280;56128;37.534;-122.308;2023-06-24T03:26:44;101672.56;;;13.51;100.00
69058;BME280;56128;37.534;-122.308;2023-06-24T03:29:10;101672.56;;;13.51;100.00
69058;BME280;56128;37.534;-122.308;2023-06-24T03:31:38;101671.72;;;13.51;100.00
69058;BME280;56128;37.534;-122.308;2023-06-24T03:34:10;101679.78;;;13.51;100.00
69058;BME280;56128;37.534;-122.308;2023-06-24T03:36:38;101680.63;;;13.51;100.00
69058;BME280;56128;37.534;-122.308;2023-06-24T03:39:05;101681.50;;;13.52;100.00
69058;BME280;56128;37.534;-122.308;2023-06-24T03:41:32;101678.81;;;13.52;100.00
69058;BME280;56128;37.534;-122.308;2023-06-24T03:43:58;101681.50;;;13.52;100.00
69058;BME280;56128;37.534;-122.308;2023-06-24T03:46:24;101678.81;;;13.52;100.00
69058;BME280;56128;37.534;-122.308;2023-06-24T03:48:51;101677.09;;;13.51;100.00
69058;BME280;56128;37.534;-122.308;2023-06-24T03:51:17;101674.41;;;13.51;100.00
69058;BME280;56128;37.534;-122.308;2023-06-24T03:53:43;101684.28;;;13.50;100.00
69058;BME280;56128;37.534;-122.308;2023-06-24T03:56:10;101688.56;;;13.53;100.00
69058;BME280;56128;37.534;-122.308;2023-06-24T03:58:36;101689.06;;;13.46;100.00
69058;BME280;56128;37.534;-122.308;2023-06-24T04:01:03;101683.69;;;13.46;100.00
69058;BME280;56128;37.534;-122.308;2023-06-24T04:03:29;101692.06;;;13.42;100.00
69058;BME280;56128;37.534;-122.308;2023-06-24T04:05:56;101691.44;;;13.38;100.00
69058;BME280;56128;37.534;-122.308;2023-06-24T04:08:23;101675.31;;;13.38;100.00
69058;BME280;56128;37.534;-122.308;2023-06-24T04:10:55;101692.28;;;13.39;100.00
69058;BME280;56128;37.534;-122.308;2023-06-24T04:13:21;101684.53;;;13.34;100.00
69058;BME280;56128;37.534;-122.308;2023-06-24T04:15:48;101685.72;;;13.30;100.00
69058;BME280;56128;37.534;-122.308;2023-06-24T04:18:14;101685.72;;;13.30;100.00
69058;BME280;56128;37.534;-122.308;2023-06-24T04:20:40;101687.88;;;13.25;100.00
69058;BME280;56128;37.534;-122.308;2023-06-24T04:23:06;101694.34;;;13.22;100.00
69058;BME280;56128;37.534;-122.308;2023-06-24T04:25:34;101695.31;;;13.21;100.00
69058;BME280;56128;37.534;-122.308;2023-06-24T04:28:02;101689.31;;;13.18;100.00
69058;BME280;56128;37.534;-122.308;2023-06-24T04:30:28;101682.69;;;13.10;100.00
69058;BME280;56128;37.534;-122.308;2023-06-24T04:32:54;101687.53;;;13.05;100.00
69058;BME280;56128;37.534;-122.308;2023-06-24T04:35:22;101683.88;;;12.93;100.00
69058;BME280;56128;37.534;-122.308;2023-06-24T04:37:48;101691.41;;;12.88;100.00
69058;BME280;56128;37.534;-122.308;2023-06-24T04:40:18;101691.84;;;12.82;100.00
69058;BME280;56128;37.534;-122.308;2023-06-24T04:42:45;101695.06;;;12.74;100.00
69058;BME280;56128;37.534;-122.308;2023-06-24T04:45:12;101688.53;;;12.65;100.00
69058;BME280;56128;37.534;-122.308;2023-06-24T04:47:38;101695.41;;;12.57;100.00
69058;BME280;56128;37.534;-122.308;2023-06-24T04:50:05;101691.53;;;12.48;100.00
69058;BME280;56128;37.534;-122.308;2023-06-24T04:52:31;101696.13;;;12.46;100.00
69058;BME280;56128;37.534;-122.308;2023-06-24T04:54:57;101692.50;;;12.47;100.00
69058;BME280;56128;37.534;-122.308;2023-06-24T04:57:26;101689.38;;;12.40;100.00
69058;BME280;56128;37.534;-122.308;2023-06-24T04:59:53;101691.97;;;12.42;100.00
69058;BME280;56128;37.534;-122.308;2023-06-24T05:02:20;101690.34;;;12.39;100.00
69058;BME280;56128;37.534;-122.308;2023-06-24T05:04:46;101692.19;;;12.39;100.00
69058;BME280;56128;37.534;-122.308;2023-06-24T05:07:12;101697.75;;;12.36;100.00
69058;BME280;56128;37.534;-122.308;2023-06-24T05:09:39;101692.81;;;12.29;100.00
69058;BME280;56128;37.534;-122.308;2023-06-24T05:12:05;101705.47;;;12.27;100.00
69058;BME280;56128;37.534;-122.308;2023-06-24T05:14:34;101704.41;;;12.30;100.00
69058;BME280;56128;37.534;-122.308;2023-06-24T05:17:02;101700.75;;;12.31;100.00
69058;BME280;56128;37.534;-122.308;2023-06-24T05:19:28;101702.81;;;12.27;100.00
69058;BME280;56128;37.534;-122.308;2023-06-24T05:21:54;101701.19;;;12.25;100.00
69058;BME280;56128;37.534;-122.308;2023-06-24T05:24:21;101698.06;;;12.31;100.00
69058;BME280;56128;37.534;-122.308;2023-06-24T05:26:50;101703.34;;;12.32;100.00
69058;BME280;56128;37.534;-122.308;2023-06-24T05:29:17;101703.34;;;12.32;100.00
69058;BME280;56128;37.534;-122.308;2023-06-24T05:31:44;101702.38;;;12.33;100.00
69058;BME280;56128;37.534;-122.308;2023-06-24T05:34:10;101701.63;;;12.31;100.00
69058;BME280;56128;37.534;-122.308;2023-06-24T05:36:36;101707.84;;;12.32;100.00
69058;BME280;56128;37.534;-122.308;2023-06-24T05:39:02;101705.16;;;12.32;100.00
69058;BME280;56128;37.534;-122.308;2023-06-24T05:41:28;101697.22;;;12.30;100.00
69058;BME280;56128;37.534;-122.308;2023-06-24T05:44:03;101703.41;;;12.31;100.00
69058;BME280;56128;37.534;-122.308;2023-06-24T05:46:29;101697.31;;;12.29;100.00
69058;BME280;56128;37.534;-122.308;2023-06-24T05:48:55;101707.19;;;12.28;100.00
69058;BME280;56128;37.534;-122.308;2023-06-24T05:51:22;101711.47;;;12.31;100.00
69058;BME280;56128;37.534;-122.308;2023-06-24T05:53:48;101707.75;;;12.33;100.00
69058;BME280;56128;37.534;-122.308;2023-06-24T05:56:14;101712.53;;;12.28;100.00
69058;BME280;56128;37.534;-122.308;2023-06-24T05:58:40;101713.53;;;12.40;100.00
69058;BME280;56128;37.534;-122.308;2023-06-24T06:01:10;101704.84;;;12.37;100.00
69058;BME280;56128;37.534;-122.308;2023-06-24T06:03:36;101705.47;;;12.27;100.00
69058;BME280;56128;37.534;-122.308;2023-06-24T06:06:02;101703.09;;;12.23;100.00
69058;BME280;56128;37.534;-122.308;2023-06-24T06:08:29;101713.41;;;12.16;100.00
69058;BME280;56128;37.534;-122.308;2023-06-24T06:10:55;101704.91;;;12.09;100.00
69058;BME280;56128;37.534;-122.308;2023-06-24T06:13:21;101709.81;;;12.02;100.00
69058;BME280;56128;37.534;-122.308;2023-06-24T06:16:08;101704.28;;;11.91;100.00
69058;BME280;56128;37.534;-122.308;2023-06-24T06:18:34;101703.53;;;11.89;100.00
69058;BME280;56128;37.534;-122.308;2023-06-24T06:21:00;101702.88;;;11.85;100.00
69058;BME280;56128;37.534;-122.308;2023-06-24T06:23:26;101698.78;;;11.80;100.00
69058;BME280;56128;37.534;-122.308;2023-06-24T06:25:53;101688.56;;;11.72;100.00
69058;BME280;56128;37.534;-122.308;2023-06-24T06:28:19;101695.00;;;11.69;100.00
69058;BME280;56128;37.534;-122.308;2023-06-24T06:30:45;101690.22;;;11.60;100.00
69058;BME280;56128;37.534;-122.308;2023-06-24T06:33:11;101680.78;;;11.55;100.00
69058;BME280;56128;37.534;-122.308;2023-06-24T06:35:37;101686.53;;;11.48;100.00
69058;BME280;56128;37.534;-122.308;2023-06-24T06:38:04;101677.06;;;11.43;100.00
69058;BME280;56128;37.534;-122.308;2023-06-24T06:40:31;101671.25;;;11.36;100.00
69058;BME280;56128;37.534;-122.308;2023-06-24T06:42:57;101670.88;;;11.28;100.00
69058;BME280;56128;37.534;-122.308;2023-06-24T06:45:23;101682.09;;;11.20;100.00
69058;BME280;56128;37.534;-122.308;2023-06-24T06:47:50;101666.53;;;11.12;100.00
69058;BME280;56128;37.534;-122.308;2023-06-24T06:50:16;101670.44;;;11.07;100.00
69058;BME280;56128;37.534;-122.308;2023-06-24T06:52:42;101657.09;;;10.92;100.00
69058;BME280;56128;37.534;-122.308;2023-06-24T06:55:09;101666.19;;;10.90;100.00
69058;BME280;56128;37.534;-122.308;2023-06-24T06:57:36;101666.34;;;10.86;100.00
69058;BME280;56128;37.534;-122.308;2023-06-24T07:00:03;101651.44;;;10.82;100.00
69058;BME280;56128;37.534;-122.308;2023-06-24T07:02:29;101658.25;;;10.74;100.00
69058;BME280;56128;37.534;-122.308;2023-06-24T07:05:15;101657.78;;;10.67;100.00
69058;BME280;56128;37.534;-122.308;2023-06-24T07:07:42;101653.66;;;10.61;100.00
69058;BME280;56128;37.534;-122.308;2023-06-24T07:10:11;101666.56;;;10.54;100.00
69058;BME280;56128;37.534;-122.308;2023-06-24T07:12:38;101654.50;;;10.47;100.00
69058;BME280;56128;37.534;-122.308;2023-06-24T07:15:05;101667.88;;;10.47;100.00
69058;BME280;56128;37.534;-122.308;2023-06-24T07:17:31;101669.22;;;10.40;100.00
69058;BME280;56128;37.534;-122.308;2023-06-24T07:19:57;101661.53;;;10.34;100.00
69058;BME280;56128;37.534;-122.308;2023-06-24T07:22:23;101657.44;;;10.28;100.00
69058;BME280;56128;37.534;-122.308;2023-06-24T07:24:49;101661.31;;;10.22;100.00
69058;BME280;56128;37.534;-122.308;2023-06-24T07:27:15;101657.97;;;10.19;100.00
69058;BME280;56128;37.534;-122.308;2023-06-24T07:29:42;101656.16;;;10.19;100.00
69058;BME280;56128;37.534;-122.308;2023-06-24T07:32:08;101657.31;;;10.15;100.00
69058;BME280;56128;37.534;-122.308;2023-06-24T07:34:34;101655.59;;;10.14;100.00
69058;BME280;56128;37.534;-122.308;2023-06-24T07:37:00;101661.88;;;10.13;100.00
69058;BME280;56128;37.534;-122.308;2023-06-24T07:39:26;101660.06;;;10.14;100.00
69058;BME280;56128;37.534;-122.308;2023-06-24T07:41:53;101650.41;;;10.11;100.00
69058;BME280;56128;37.534;-122.308;2023-06-24T07:44:19;101654.03;;;10.10;100.00
69058;BME280;56128;37.534;-122.308;2023-06-24T07:46:45;101655.19;;;10.06;100.00
69058;BME280;56128;37.534;-122.308;2023-06-24T07:49:11;101655.53;;;10.00;100.00
69058;BME280;56128;37.534;-122.308;2023-06-24T07:51:38;101652.97;;;9.98;100.00
69058;BME280;56128;37.534;-122.308;2023-06-24T07:54:04;101646.09;;;9.94;100.00
69058;BME280;56128;37.534;-122.308;2023-06-24T07:56:30;101640.16;;;9.89;100.00
69058;BME280;56128;37.534;-122.308;2023-06-24T07:58:57;101649.97;;;9.88;100.00
69058;BME280;56128;37.534;-122.308;2023-06-24T08:01:23;101655.31;;;9.88;100.00
69058;BME280;56128;37.534;-122.308;2023-06-24T08:03:49;101646.56;;;9.86;100.00
69058;BME280;56128;37.534;-122.308;2023-06-24T08:06:15;101634.28;;;9.82;100.00
69058;BME280;56128;37.534;-122.308;2023-06-24T08:08:41;101636.97;;;9.82;100.00
69058;BME280;56128;37.534;-122.308;2023-06-24T08:11:07;101635.34;;;9.80;100.00
69058;BME280;56128;37.534;-122.308;2023-06-24T08:13:33;101646.97;;;9.79;100.00
69058;BME280;56128;37.534;-122.308;2023-06-24T08:16:00;101630.28;;;9.75;100.00
69058;BME280;56128;37.534;-122.308;2023-06-24T08:18:26;101637.31;;;9.76;100.00
69058;BME280;56128;37.534;-122.308;2023-06-24T08:20:52;101633.81;;;9.75;100.00
69058;BME280;56128;37.534;-122.308;2023-06-24T08:23:18;101631.22;;;9.74;100.00
69058;BME280;56128;37.534;-122.308;2023-06-24T08:25:44;101633.72;;;9.77;100.00
69058;BME280;56128;37.534;-122.308;2023-06-24T08:28:11;101626.47;;;9.79;100.00
69058;BME280;56128;37.534;-122.308;2023-06-24T08:30:37;101629.91;;;9.81;100.00
69058;BME280;56128;37.534;-122.308;2023-06-24T08:33:03;101626.84;;;9.87;100.00
69058;BME280;56128;37.534;-122.308;2023-06-24T08:35:30;101626.84;;;9.87;100.00
69058;BME280;56128;37.534;-122.308;2023-06-24T08:37:56;101624.81;;;9.93;100.00
69058;BME280;56128;37.534;-122.308;2023-06-24T08:40:22;101617.53;;;9.95;100.00
69058;BME280;56128;37.534;-122.308;2023-06-24T08:42:48;101628.06;;;9.98;100.00
69058;BME280;56128;37.534;-122.308;2023-06-24T08:45:15;101627.00;;;10.00;100.00
69058;BME280;56128;37.534;-122.308;2023-06-24T08:47:41;101623.88;;;10.08;100.00
69058;BME280;56128;37.534;-122.308;2023-06-24T08:50:12;101630.94;;;10.09;100.00
69058;BME280;56128;37.534;-122.308;2023-06-24T08:52:43;101628.16;;;10.11;100.00
69058;BME280;56128;37.534;-122.308;2023-06-24T08:55:13;101621.78;;;10.13;100.00
69058;BME280;56128;37.534;-122.308;2023-06-24T08:57:42;101620.25;;;10.09;100.00
69058;BME280;56128;37.534;-122.308;2023-06-24T09:00:08;101628.28;;;10.09;100.00
69058;BME280;56128;37.534;-122.308;2023-06-24T09:02:37;101621.78;;;10.13;100.00
69058;BME280;56128;37.534;-122.308;2023-06-24T09:05:07;101621.78;;;10.13;100.00
69058;BME280;56128;37.534;-122.308;2023-06-24T09:07:34;101631.31;;;10.17;100.00
69058;BME280;56128;37.534;-122.308;2023-06-24T09:10:00;101626.53;;;10.22;100.00
69058;BME280;56128;37.534;-122.308;2023-06-24T09:12:26;101628.16;;;10.25;100.00
69058;BME280;56128;37.534;-122.308;2023-06-24T09:14:53;101628.84;;;10.29;100.00
69058;BME280;56128;37.534;-122.308;2023-06-24T09:17:19;101628.94;;;10.27;100.00
69058;BME280;56128;37.534;-122.308;2023-06-24T09:19:48;101614.63;;;10.28;100.00
69058;BME280;56128;37.534;-122.308;2023-06-24T09:22:15;101616.44;;;10.28;100.00
69058;BME280;56128;37.534;-122.308;2023-06-24T09:24:46;101615.69;;;10.26;100.00
69058;BME280;56128;37.534;-122.308;2023-06-24T09:27:17;101613.00;;;10.26;100.00
69058;BME280;56128;37.534;-122.308;2023-06-24T09:29:47;101620.16;;;10.25;100.00
69058;BME280;56128;37.534;-122.308;2023-06-24T09:32:14;101614.16;;;10.21;100.00
69058;BME280;56128;37.534;-122.308;2023-06-24T09:34:41;101610.81;;;10.18;100.00
69058;BME280;56128;37.534;-122.308;2023-06-24T09:37:07;101611.84;;;10.15;100.00
69058;BME280;56128;37.534;-122.308;2023-06-24T09:39:37;101613.91;;;10.10;100.00
69058;BME280;56128;37.534;-122.308;2023-06-24T09:42:04;101611.66;;;10.04;100.00
69058;BME280;56128;37.534;-122.308;2023-06-24T09:44:32;101620.50;;;10.04;100.00
69058;BME280;56128;37.534;-122.308;2023-06-24T09:46:59;101617.84;;;10.04;100.00
69058;BME280;56128;37.534;-122.308;2023-06-24T09:49:25;101612.41;;;10.06;100.00
69058;BME280;56128;37.534;-122.308;2023-06-24T09:51:58;101598.84;;;10.09;100.00
69058;BME280;56128;37.534;-122.308;2023-06-24T09:54:28;101609.94;;;10.17;100.00
69058;BME280;56128;37.534;-122.308;2023-06-24T09:56:57;101596.97;;;10.26;100.00
69058;BME280;56128;37.534;-122.308;2023-06-24T09:59:25;101593.22;;;10.28;100.00
69058;BME280;56128;37.534;-122.308;2023-06-24T10:01:55;101589.22;;;10.35;100.00
69058;BME280;56128;37.534;-122.308;2023-06-24T10:04:23;101589.34;;;10.48;100.00
69058;BME280;56128;37.534;-122.308;2023-06-24T10:06:51;101598.88;;;10.52;100.00
69058;BME280;56128;37.534;-122.308;2023-06-24T10:09:17;101600.34;;;10.58;100.00
69058;BME280;56128;37.534;-122.308;2023-06-24T10:11:46;101602.69;;;10.63;100.00
69058;BME280;56128;37.534;-122.308;2023-06-24T10:14:13;101600.69;;;10.66;100.00
69058;BME280;56128;37.534;-122.308;2023-06-24T10:16:41;101593.16;;;10.73;100.00
69058;BME280;56128;37.534;-122.308;2023-06-24T10:19:07;101592.56;;;10.82;100.00
69058;BME280;56128;37.534;-122.308;2023-06-24T10:21:54;101596.47;;;10.91;100.00
69058;BME280;56128;37.534;-122.308;2023-06-24T10:24:37;101598.19;;;10.92;100.00
69058;BME280;56128;37.534;-122.308;2023-06-24T10:27:07;101594.34;;;10.96;100.00
69058;BME280;56128;37.534;-122.308;2023-06-24T10:29:44;101591.16;;;11.04;100.00
69058;BME280;56128;37.534;-122.308;2023-06-24T10:32:10;101593.66;;;11.07;100.00
69058;BME280;56128;37.534;-122.308;2023-06-24T10:34:56;101591.63;;;11.11;100.00
69058;BME280;56128;37.534;-122.308;2023-06-24T10:37:25;101591.13;;;11.18;100.00
69058;BME280;56128;37.534;-122.308;2023-06-24T10:39:56;101593.41;;;11.25;100.00
69058;BME280;56128;37.534;-122.308;2023-06-24T10:42:39;101591.06;;;11.33;100.00
69058;BME280;56128;37.534;-122.308;2023-06-24T10:47:44;101583.75;;;11.49;100.00
69058;BME280;56128;37.534;-122.308;2023-06-24T10:50:16;101585.97;;;11.56;100.00
69058;BME280;56128;37.534;-122.308;2023-06-24T10:52:47;101588.25;;;11.62;100.00
69058;BME280;56128;37.534;-122.308;2023-06-24T10:55:14;101583.44;;;11.67;100.00
69058;BME280;56128;37.534;-122.308;2023-06-24T10:57:41;101582.47;;;11.68;100.00
69058;BME280;56128;37.534;-122.308;2023-06-24T11:00:08;101580.69;;;11.68;100.00
69058;BME280;56128;37.534;-122.308;2023-06-24T11:02:35;101584.00;;;11.72;100.00
69058;BME280;56128;37.534;-122.308;2023-06-24T11:05:03;101585.63;;;11.75;100.00
69058;BME280;56128;37.534;-122.308;2023-06-24T11:07:31;101582.06;;;11.74;100.00
69058;BME280;56128;37.534;-122.308;2023-06-24T11:10:06;101576.16;;;11.82;100.00
69058;BME280;56128;37.534;-122.308;2023-06-24T11:12:33;101583.06;;;11.86;100.00
69058;BME280;56128;37.534;-122.308;2023-06-24T11:15:04;101586.59;;;11.86;100.00
69058;BME280;56128;37.534;-122.308;2023-06-24T11:17:31;101583.59;;;11.91;100.00
69058;BME280;56128;37.534;-122.308;2023-06-24T11:19:58;101593.06;;;11.97;100.00
69058;BME280;56128;37.534;-122.308;2023-06-24T11:22:26;101585.91;;;11.97;100.00
69058;BME280;56128;37.534;-122.308;2023-06-24T11:24:53;101584.94;;;11.98;100.00
69058;BME280;56128;37.534;-122.308;2023-06-24T11:27:30;101581.38;;;11.98;100.00
69058;BME280;56128;37.534;-122.308;2023-06-24T11:29:58;101597.03;;;12.04;100.00
69058;BME280;56128;37.534;-122.308;2023-06-24T11:32:47;101584.41;;;12.06;100.00
69058;BME280;56128;37.534;-122.308;2023-06-24T11:35:14;101585.13;;;12.08;100.00
69058;BME280;56128;37.534;-122.308;2023-06-24T11:37:46;101580.75;;;12.07;100.00
69058;BME280;56128;37.534;-122.308;2023-06-24T11:40:16;101584.47;;;12.05;100.00
69058;BME280;56128;37.534;-122.308;2023-06-24T11:42:44;101583.53;;;12.06;100.00
69058;BME280;56128;37.534;-122.308;2023-06-24T11:45:11;101589.53;;;12.09;100.00
69058;BME280;56128;37.534;-122.308;2023-06-24T11:47:39;101596.84;;;12.07;100.00
69058;BME280;56128;37.534;-122.308;2023-06-24T11:50:07;101592.34;;;12.08;100.00
69058;BME280;56128;37.534;-122.308;2023-06-24T11:52:40;101588.56;;;12.10;100.00
69058;BME280;56128;37.534;-122.308;2023-06-24T11:55:16;101586.97;;;12.08;100.00
69058;BME280;56128;37.534;-122.308;2023-06-24T11:57:58;101592.03;;;12.12;100.00
69058;BME280;56128;37.534;-122.308;2023-06-24T12:00:30;101585.78;;;12.12;100.00
69058;BME280;56128;37.534;-122.308;2023-06-24T12:03:01;101582.97;;;12.13;100.00
69058;BME280;56128;37.534;-122.308;2023-06-24T12:05:34;101588.28;;;12.15;100.00
69058;BME280;56128;37.534;-122.308;2023-06-24T12:08:02;101588.34;;;12.13;100.00
69058;BME280;56128;37.534;-122.308;2023-06-24T12:10:30;101587.38;;;12.14;100.00
69058;BME280;56128;37.534;-122.308;2023-06-24T12:12:59;101587.63;;;12.11;100.00
69058;BME280;56128;37.534;-122.308;2023-06-24T12:15:26;101586.44;;;12.15;100.00
69058;BME280;56128;37.534;-122.308;2023-06-24T12:17:53;101577.31;;;12.18;100.00
69058;BME280;56128;37.534;-122.308;2023-06-24T12:20:20;101596.09;;;12.18;100.00
69058;BME280;56128;37.534;-122.308;2023-06-24T12:22:47;101597.69;;;12.21;100.00
69058;BME280;56128;37.534;-122.308;2023-06-24T12:25:15;101595.97;;;12.20;100.00